Big Ridge, Louisiana
Current Conditions -  °F | °C
As of 4:53 PM on Saturday 22 Nov 2014 (Local Time) from KMLU Reporting Station
Broken Clouds Broken Clouds  
Wind Chill: 66°   Ceiling: 3700
Heat Index: 66°   Visibility: 10mi
Dew Point: 56°   Wind: 0mph
Humidity: 70%   Direction: NA
Pressure: 30.01"   Gusts: NA
Location:  32.1631°N, 92.1971°W
Report Text: KMLU 222253Z 00000KT 10SM BKN037 19/13 A3001 RMK AO2 SLP160 T01890133
Loading
Personal Weather Stations






























Interactive Weather Map New forecast layout! Learn more

10-Day Weather Forecast

Advertisements
Track Severe Weather on mobile